Time;durP1;ratioP1;P1;durP2;ratioP2;P2;SDS_P1;SDS_P2;PMS_P1;PMS_P2;Temp;Humidity;BMP_temperature;BMP_pressure;BME280_temperature;BME280_humidity;BME280_pressure;Samples;Min_cycle;Max_cycle;Signal;HPM_P1;HPM_P2
2023/05/07 00:02:01;;;;;;;22.70;20.50;;;;;;;9.91;100.00;97989.90;107014;1276;22947;-80
2023/05/07 00:04:35;;;;;;;21.20;19.10;;;;;;;9.79;100.00;97986.96;107126;1276;22807;-83
2023/05/07 00:07:03;;;;;;;20.30;18.40;;;;;;;9.70;100.00;97988.58;107191;1276;22536;-80
2023/05/07 00:09:31;;;;;;;19.80;17.80;;;;;;;9.70;100.00;97986.60;107272;1276;24388;-78
2023/05/07 00:12:00;;;;;;;21.50;19.10;;;;;;;9.68;100.00;97984.90;107234;1276;23029;-82
2023/05/07 00:14:28;;;;;;;21.60;19.50;;;;;;;9.63;100.00;97986.16;108210;1276;22627;-85
2023/05/07 00:16:56;;;;;;;22.40;20.10;;;;;;;9.60;100.00;97983.30;106935;1276;22629;-84
2023/05/07 00:19:24;;;;;;;21.60;19.50;;;;;;;9.56;100.00;97983.45;106947;1276;22769;-86
2023/05/07 00:21:53;;;;;;;21.00;18.90;;;;;;;9.52;100.00;97985.70;106632;1276;25465;-85
2023/05/07 00:24:22;;;;;;;22.40;20.00;;;;;;;9.50;100.00;97984.33;106973;1276;22625;-85
2023/05/07 00:26:50;;;;;;;21.60;19.40;;;;;;;9.49;100.00;97985.04;106954;1276;22621;-84
2023/05/07 00:29:18;;;;;;;19.30;17.40;;;;;;;9.47;100.00;97978.23;106698;1276;24254;-83
2023/05/07 00:31:48;;;;;;;20.50;18.50;;;;;;;9.47;100.00;97984.00;106632;1276;22729;-82
2023/05/07 00:34:16;;;;;;;20.40;18.50;;;;;;;9.44;100.00;97983.55;106982;1276;24153;-82
2023/05/07 00:36:44;;;;;;;20.20;18.30;;;;;;;9.44;100.00;97990.86;107000;1276;22536;-82
2023/05/07 00:39:12;;;;;;;20.30;18.00;;;;;;;9.42;100.00;97995.63;106932;1276;22528;-82
2023/05/07 00:41:40;;;;;;;21.00;18.90;;;;;;;9.40;100.00;97997.27;106927;1263;22656;-82
2023/05/07 00:44:08;;;;;;;22.20;19.90;;;;;;;9.36;100.00;97998.65;106681;1276;22578;-82
2023/05/07 00:46:37;;;;;;;20.90;18.70;;;;;;;9.27;100.00;98001.84;106924;1276;22640;-81
2023/05/07 00:49:06;;;;;;;22.00;19.80;;;;;;;9.19;100.00;98001.82;106931;1276;22656;-82
2023/05/07 00:51:34;;;;;;;20.80;18.60;;;;;;;9.12;100.00;98003.36;106928;1276;25321;-81
2023/05/07 00:54:03;;;;;;;23.00;20.80;;;;;;;9.05;100.00;98000.79;106914;1276;25233;-82
2023/05/07 00:56:31;;;;;;;22.00;20.00;;;;;;;8.99;100.00;98005.33;106924;1276;22520;-79
2023/05/07 00:59:01;;;;;;;22.10;20.00;;;;;;;8.95;100.00;98004.02;106986;1276;24235;-80
2023/05/07 01:01:31;;;;;;;22.80;20.50;;;;;;;8.94;100.00;98004.41;106954;1276;25344;-80
2023/05/07 01:03:59;;;;;;;20.40;18.40;;;;;;;8.92;100.00;98001.30;106935;1276;25259;-79
2023/05/07 01:06:30;;;;;;;21.60;19.50;;;;;;;8.87;100.00;98007.06;106868;1276;22517;-79
2023/05/07 01:09:00;;;;;;;21.90;18.50;;;;;;;8.81;100.00;98009.38;107007;1276;25473;-79
2023/05/07 01:11:28;;;;;;;21.70;19.60;;;;;;;8.79;100.00;98010.09;106985;1276;25389;-79
2023/05/07 01:13:59;;;;;;;21.60;19.30;;;;;;;8.77;100.00;98010.23;106929;1276;23029;-78
2023/05/07 01:16:27;;;;;;;20.60;18.60;;;;;;;8.70;100.00;98013.04;106694;1276;25271;-78
2023/05/07 01:18:55;;;;;;;22.90;20.50;;;;;;;8.64;100.00;98013.63;106904;1276;24051;-78
2023/05/07 01:21:26;;;;;;;22.00;19.90;;;;;;;8.57;100.00;98009.39;106937;1276;23019;-79
2023/05/07 01:23:57;;;;;;;26.50;24.30;;;;;;;8.57;100.00;98018.52;106688;1276;24190;-79
2023/05/07 01:26:25;;;;;;;26.60;23.70;;;;;;;8.52;100.00;98013.35;106930;1276;25613;-79
2023/05/07 01:28:53;;;;;;;25.50;23.20;;;;;;;8.42;100.00;98012.38;106908;1276;24205;-79
2023/05/07 01:31:23;;;;;;;28.50;25.60;;;;;;;8.39;100.00;98017.23;106598;1276;22591;-78
2023/05/07 01:33:53;;;;;;;24.50;22.00;;;;;;;8.36;100.00;98014.16;106605;1276;25393;-78
2023/05/07 01:36:25;;;;;;;24.90;22.40;;;;;;;8.35;100.00;98013.79;106641;1276;22517;-79
2023/05/07 01:38:54;;;;;;;24.90;22.60;;;;;;;8.35;100.00;98012.14;106920;1276;22535;-79
2023/05/07 01:41:22;;;;;;;25.50;22.80;;;;;;;8.36;100.00;98017.98;106638;1276;25217;-78
2023/05/07 01:43:52;;;;;;;22.60;20.40;;;;;;;8.39;100.00;98022.81;106631;1276;22692;-78
2023/05/07 01:46:20;;;;;;;23.00;20.70;;;;;;;8.41;100.00;98021.55;106870;1276;22636;-78
2023/05/07 01:48:49;;;;;;;22.70;20.40;;;;;;;8.40;100.00;98024.67;106967;1276;24187;-78
2023/05/07 01:51:19;;;;;;;23.50;21.10;;;;;;;8.36;100.00;98021.09;106909;1276;25316;-78
2023/05/07 01:53:50;;;;;;;21.20;18.50;;;;;;;8.32;100.00;98018.59;106895;1276;22627;-78
2023/05/07 01:56:20;;;;;;;22.40;20.30;;;;;;;8.34;100.00;98020.41;106967;1276;22562;-79
2023/05/07 01:58:51;;;;;;;21.10;19.00;;;;;;;8.32;100.00;98018.48;106968;1276;22524;-78
2023/05/07 02:01:20;;;;;;;20.10;18.10;;;;;;;8.24;100.00;98019.52;106982;1276;24341;-78
2023/05/07 02:03:49;;;;;;;18.20;16.60;;;;;;;8.13;100.00;98018.84;107041;1276;25653;-79
2023/05/07 02:06:20;;;;;;;19.40;17.60;;;;;;;8.12;100.00;98020.20;107911;1276;22795;-82
2023/05/07 02:08:48;;;;;;;22.40;19.60;;;;;;;8.18;100.00;98025.14;106989;1276;24234;-80
2023/05/07 02:11:42;;;;;;;20.20;18.10;;;;;;;8.16;100.00;98021.77;108842;1276;22623;-78
2023/05/07 02:14:11;;;;;;;19.70;17.90;;;;;;;8.19;100.00;98021.70;107782;1276;22514;-79
2023/05/07 02:16:38;;;;;;;19.90;17.80;;;;;;;8.19;100.00;98024.86;106916;1276;22514;-79
2023/05/07 02:19:07;;;;;;;19.60;17.90;;;;;;;8.19;100.00;98027.70;106710;1276;22631;-79
2023/05/07 02:21:35;;;;;;;18.60;16.80;;;;;;;8.18;100.00;98030.56;106750;1276;24233;-82
2023/05/07 02:24:03;;;;;;;18.50;16.80;;;;;;;8.18;100.00;98029.39;106888;1276;22524;-79
2023/05/07 02:26:31;;;;;;;16.30;14.70;;;;;;;8.15;100.00;98027.90;106742;1276;26083;-79
2023/05/07 02:29:00;;;;;;;17.30;15.70;;;;;;;8.16;100.00;98028.27;106923;1276;22684;-79
2023/05/07 02:31:27;;;;;;;17.00;15.50;;;;;;;8.12;100.00;98031.20;106739;1276;24048;-80
2023/05/07 02:33:55;;;;;;;14.60;13.20;;;;;;;8.07;100.00;98031.56;106926;1276;22518;-79
2023/05/07 02:36:24;;;;;;;14.00;12.70;;;;;;;8.06;100.00;98031.14;106932;1276;22529;-79
2023/05/07 02:38:57;;;;;;;13.30;12.10;;;;;;;8.04;100.00;98035.98;106903;1276;24435;-79
2023/05/07 02:41:25;;;;;;;11.80;10.70;;;;;;;8.04;100.00;98032.71;106634;1276;24194;-79
2023/05/07 02:43:53;;;;;;;12.30;11.10;;;;;;;8.07;100.00;98030.44;106590;1276;22661;-80
2023/05/07 02:46:21;;;;;;;12.90;11.60;;;;;;;8.09;100.00;98029.93;106909;1276;22536;-79
2023/05/07 02:48:56;;;;;;;12.50;11.50;;;;;;;8.12;100.00;98034.80;106924;1276;22515;-79
2023/05/07 02:51:25;;;;;;;11.60;10.50;;;;;;;8.13;100.00;98037.21;106423;1276;22674;-80
2023/05/07 02:53:54;;;;;;;12.70;11.60;;;;;;;8.15;100.00;98035.70;106842;1276;23318;-77
2023/05/07 02:56:23;;;;;;;13.90;12.70;;;;;;;8.15;100.00;98035.91;106760;1276;22586;-80
2023/05/07 02:58:51;;;;;;;13.20;11.90;;;;;;;8.13;100.00;98037.42;106531;1276;24327;-78
2023/05/07 03:01:20;;;;;;;13.50;12.20;;;;;;;8.11;100.00;98036.20;106468;1276;22673;-82
2023/05/07 03:04:00;;;;;;;12.20;11.20;;;;;;;8.09;100.00;98037.81;106942;1276;24262;-79
2023/05/07 03:06:28;;;;;;;11.30;10.20;;;;;;;8.09;100.00;98038.58;106622;1276;24211;-82
2023/05/07 03:08:56;;;;;;;11.20;9.80;;;;;;;8.12;100.00;98040.44;106765;1276;25230;-79
2023/05/07 03:11:24;;;;;;;10.80;9.80;;;;;;;8.11;100.00;98041.09;106740;1276;22814;-81
2023/05/07 03:13:52;;;;;;;10.10;9.20;;;;;;;8.09;100.00;98043.35;106555;1276;22643;-78
2023/05/07 03:16:21;;;;;;;10.90;9.90;;;;;;;8.06;100.00;98047.98;106468;1276;23158;-78
2023/05/07 03:18:49;;;;;;;10.30;9.20;;;;;;;8.01;100.00;98050.98;106809;1276;25424;-78
2023/05/07 03:21:18;;;;;;;11.30;10.10;;;;;;;7.97;100.00;98054.39;106849;1276;22537;-80
2023/05/07 03:23:45;;;;;;;11.80;10.60;;;;;;;7.94;100.00;98055.14;106945;1276;22637;-79
2023/05/07 03:26:13;;;;;;;11.60;10.50;;;;;;;7.94;100.00;98059.55;107001;1276;24204;-79
2023/05/07 03:28:42;;;;;;;11.90;10.60;;;;;;;7.94;100.00;98060.67;107024;1276;23511;-81
2023/05/07 03:31:12;;;;;;;11.80;10.70;;;;;;;7.92;100.00;98067.88;106889;1276;23936;-80
2023/05/07 03:34:09;;;;;;;11.40;10.30;;;;;;;7.91;100.00;98067.50;106962;1276;24398;-82
2023/05/07 03:36:37;;;;;;;10.60;9.60;;;;;;;7.87;100.00;98072.70;106418;1283;25273;-80
2023/05/07 03:39:07;;;;;;;11.20;9.50;;;;;;;7.83;100.00;98074.90;106350;1283;22578;-80
2023/05/07 03:41:38;;;;;;;10.30;9.30;;;;;;;7.85;100.00;98079.50;106386;1283;22596;-80
2023/05/07 03:44:07;;;;;;;9.80;8.50;;;;;;;7.85;100.00;98085.04;106307;1283;22499;-82
2023/05/07 03:46:35;;;;;;;9.10;8.10;;;;;;;7.82;100.00;98089.45;106289;1283;24210;-81
2023/05/07 03:49:03;;;;;;;9.10;8.20;;;;;;;7.76;100.00;98089.79;106442;1283;22545;-82
2023/05/07 03:51:32;;;;;;;8.30;6.70;;;;;;;7.78;100.00;98091.55;106400;1283;22701;-83
2023/05/07 03:54:00;;;;;;;8.20;7.40;;;;;;;7.75;100.00;98088.19;106421;1283;24294;-83
2023/05/07 03:56:29;;;;;;;8.40;7.50;;;;;;;7.72;100.00;98091.41;106359;1283;22736;-82
2023/05/07 03:58:57;;;;;;;7.20;6.50;;;;;;;7.67;100.00;98093.96;107059;1278;23002;-80
2023/05/07 04:01:27;;;;;;;7.80;6.40;;;;;;;7.67;100.00;98094.43;106410;1260;22736;-80
2023/05/07 04:03:55;;;;;;;7.30;5.70;;;;;;;7.67;100.00;98099.48;106389;1283;24237;-80
2023/05/07 04:06:25;;;;;;;6.20;5.60;;;;;;;7.69;100.00;98101.95;106288;1284;22559;-79
2023/05/07 04:08:53;;;;;;;7.80;5.70;;;;;;;7.66;100.00;98099.06;106183;1283;22706;-80
2023/05/07 04:11:21;;;;;;;6.40;5.70;;;;;;;7.61;100.00;98106.48;106311;1283;22700;-84
2023/05/07 04:13:49;;;;;;;8.20;5.50;;;;;;;7.61;100.00;98108.20;106779;1276;23042;-85
2023/05/07 04:16:20;;;;;;;6.70;6.00;;;;;;;7.62;100.00;98112.81;108705;1276;22482;-81
2023/05/07 04:18:48;;;;;;;6.20;5.60;;;;;;;7.66;100.00;98112.16;108394;1276;26516;-85
2023/05/07 04:21:18;;;;;;;6.90;5.90;;;;;;;7.64;100.00;98113.93;106586;1276;22605;-86
2023/05/07 04:23:48;;;;;;;8.40;6.50;;;;;;;7.65;100.00;98116.55;106821;1276;22521;-84
2023/05/07 04:26:16;;;;;;;8.00;7.20;;;;;;;7.63;100.00;98122.30;106935;1276;22573;-83
2023/05/07 04:28:44;;;;;;;7.90;7.00;;;;;;;7.57;100.00;98123.45;107215;1272;22810;-83
2023/05/07 04:31:12;;;;;;;6.20;5.60;;;;;;;7.55;100.00;98126.56;106653;1276;23188;-82
2023/05/07 04:33:41;;;;;;;6.40;5.40;;;;;;;7.53;100.00;98130.22;106650;1276;23020;-84
2023/05/07 04:36:11;;;;;;;6.50;5.80;;;;;;;7.53;100.00;98132.36;106949;1276;22630;-84
2023/05/07 04:38:45;;;;;;;7.10;5.60;;;;;;;7.54;100.00;98136.88;106827;1276;22736;-81
2023/05/07 04:41:14;;;;;;;7.10;6.10;;;;;;;7.55;100.00;98133.91;106971;1276;25913;-80
2023/05/07 04:43:43;;;;;;;8.20;6.40;;;;;;;7.57;100.00;98140.02;107037;1272;22577;-80
2023/05/07 04:46:12;;;;;;;7.40;5.80;;;;;;;7.54;100.00;98141.27;106916;1276;22944;-80
2023/05/07 04:48:40;;;;;;;6.70;5.90;;;;;;;7.48;100.00;98148.67;106870;1276;24375;-79
2023/05/07 04:51:08;;;;;;;7.40;6.00;;;;;;;7.46;100.00;98153.13;106937;1276;24356;-79
2023/05/07 04:53:37;;;;;;;6.90;5.70;;;;;;;7.48;100.00;98156.95;106699;1273;22569;-80
2023/05/07 04:56:05;;;;;;;8.40;5.10;;;;;;;7.48;100.00;98159.19;106706;1276;23477;-81
2023/05/07 04:58:39;;;;;;;6.20;5.60;;;;;;;7.46;100.00;98162.03;107012;1276;22516;-81
2023/05/07 05:01:07;;;;;;;5.90;5.10;;;;;;;7.39;100.00;98165.86;107311;1266;22571;-80
2023/05/07 05:03:36;;;;;;;7.10;6.40;;;;;;;7.34;100.00;98166.35;107025;1276;25319;-84
2023/05/07 05:06:05;;;;;;;7.80;6.70;;;;;;;7.29;100.00;98174.02;107185;1276;22599;-81
2023/05/07 05:08:34;;;;;;;6.30;5.60;;;;;;;7.26;100.00;98174.23;107194;1272;22740;-81
2023/05/07 05:11:04;;;;;;;6.70;6.00;;;;;;;7.24;100.00;98176.48;107202;1276;22630;-77
2023/05/07 05:13:33;;;;;;;7.10;6.00;;;;;;;7.24;100.00;98178.80;106838;1275;22782;-78
2023/05/07 05:16:05;;;;;;;7.20;5.90;;;;;;;7.24;100.00;98181.38;106969;1276;24313;-77
2023/05/07 05:18:35;;;;;;;6.90;6.20;;;;;;;7.22;100.00;98179.98;106914;1276;24219;-78
2023/05/07 05:21:03;;;;;;;7.50;6.30;;;;;;;7.19;100.00;98185.45;106684;1275;22611;-79
2023/05/07 05:23:31;;;;;;;7.10;5.60;;;;;;;7.19;100.00;98186.25;106958;1276;22528;-78
2023/05/07 05:26:00;;;;;;;6.00;5.40;;;;;;;7.19;100.00;98189.15;106821;1276;25415;-78
2023/05/07 05:28:30;;;;;;;6.40;5.30;;;;;;;7.16;100.00;98189.63;106851;1275;22793;-78
2023/05/07 05:30:58;;;;;;;7.90;6.40;;;;;;;7.15;100.00;98193.71;106888;1276;24352;-76
2023/05/07 05:33:27;;;;;;;8.10;6.80;;;;;;;7.14;100.00;98195.53;106959;1276;22629;-77
2023/05/07 05:35:57;;;;;;;9.00;6.90;;;;;;;7.16;100.00;98206.14;106774;1276;22633;-77
2023/05/07 05:38:25;;;;;;;7.10;6.40;;;;;;;7.16;100.00;98207.38;106963;1276;22544;-77
2023/05/07 05:40:54;;;;;;;7.50;6.10;;;;;;;7.18;100.00;98206.41;106888;1276;24195;-77
2023/05/07 05:43:23;;;;;;;8.10;6.70;;;;;;;7.20;100.00;98209.08;106586;1276;22542;-77
2023/05/07 05:45:51;;;;;;;6.10;5.50;;;;;;;7.21;100.00;98217.72;106437;1276;22520;-79
2023/05/07 05:48:19;;;;;;;7.50;5.70;;;;;;;7.19;100.00;98218.46;106591;1275;197998;-79
2023/05/07 05:50:49;;;;;;;6.20;4.80;;;;;;;7.15;100.00;98220.55;107189;1276;22633;-77
2023/05/07 05:53:18;;;;;;;6.70;5.10;;;;;;;7.05;100.00;98222.16;106959;1276;22536;-77
2023/05/07 05:55:46;;;;;;;7.60;5.80;;;;;;;7.02;100.00;98228.27;106952;1276;22633;-79
2023/05/07 05:58:15;;;;;;;7.00;6.30;;;;;;;7.00;100.00;98224.58;106966;1276;24476;-77
2023/05/07 06:00:51;;;;;;;5.30;4.80;;;;;;;6.93;100.00;98226.66;106949;1276;22788;-78
2023/05/07 06:03:19;;;;;;;6.00;5.40;;;;;;;6.91;100.00;98229.71;106721;1276;22525;-79
2023/05/07 06:05:47;;;;;;;4.30;3.90;;;;;;;6.92;100.00;98233.69;106952;1276;22533;-79
2023/05/07 06:08:17;;;;;;;5.50;4.30;;;;;;;6.94;100.00;98234.33;106976;1272;22581;-78
2023/05/07 06:10:45;;;;;;;5.60;5.00;;;;;;;6.94;100.00;98234.70;106916;1276;22524;-78
2023/05/07 06:13:13;;;;;;;6.90;5.60;;;;;;;6.91;100.00;98235.92;106727;1276;22529;-79
2023/05/07 06:15:42;;;;;;;5.00;4.50;;;;;;;6.88;100.00;98237.64;106812;1276;24304;-81
2023/05/07 06:18:11;;;;;;;5.00;4.20;;;;;;;6.86;100.00;98240.05;106995;1276;22523;-77
2023/05/07 06:20:39;;;;;;;5.10;4.30;;;;;;;6.89;100.00;98241.33;106649;1276;22544;-78
2023/05/07 06:23:10;;;;;;;4.90;4.40;;;;;;;6.85;100.00;98248.92;108521;1276;22553;-76
2023/05/07 06:25:38;;;;;;;4.70;4.30;;;;;;;6.79;100.00;98252.08;107108;1276;25617;-77
2023/05/07 06:28:08;;;;;;;4.60;3.80;;;;;;;6.77;100.00;98249.83;106920;1276;22523;-77
2023/05/07 06:30:36;;;;;;;5.00;4.40;;;;;;;6.71;100.00;98254.90;107199;1276;22572;-78
2023/05/07 06:33:04;;;;;;;5.00;4.50;;;;;;;6.71;100.00;98255.66;106843;1270;24445;-77
2023/05/07 06:35:32;;;;;;;5.20;4.50;;;;;;;6.70;100.00;98255.70;107013;1270;22564;-77
2023/05/07 06:38:00;;;;;;;5.00;4.50;;;;;;;6.64;100.00;98262.23;106970;1276;24542;-79
2023/05/07 06:40:29;;;;;;;5.20;4.60;;;;;;;6.62;100.00;98262.76;106617;1277;22570;-81
2023/05/07 06:42:59;;;;;;;5.40;4.80;;;;;;;6.57;100.00;98266.16;106612;1277;22543;-81
2023/05/07 06:45:49;;;;;;;5.00;4.40;;;;;;;6.54;100.00;98265.84;106836;1277;24320;-81
2023/05/07 06:48:17;;;;;;;7.80;7.00;;;;;;;6.52;100.00;98267.05;106771;1276;22521;-81
2023/05/07 06:50:51;;;;;;;7.30;6.60;;;;;;;6.50;100.00;98269.63;106971;1276;22521;-81
2023/05/07 06:53:19;;;;;;;6.30;5.70;;;;;;;6.45;100.00;98270.42;106747;1276;22605;-81
2023/05/07 06:55:47;;;;;;;6.20;5.00;;;;;;;6.44;100.00;98271.63;106927;1276;24593;-80
2023/05/07 06:58:17;;;;;;;6.10;4.90;;;;;;;6.46;100.00;98274.43;106945;1276;22633;-78
2023/05/07 07:00:45;;;;;;;6.10;4.40;;;;;;;6.45;100.00;98275.67;106682;1276;25450;-78
2023/05/07 07:03:13;;;;;;;5.10;4.50;;;;;;;6.47;100.00;98278.67;106751;1270;25358;-78
2023/05/07 07:05:42;;;;;;;4.70;4.20;;;;;;;6.49;100.00;98282.90;106633;1276;22804;-77
2023/05/07 07:08:10;;;;;;;5.70;3.90;;;;;;;6.53;100.00;98286.77;106940;1276;22630;-79
2023/05/07 07:10:38;;;;;;;9.00;8.20;;;;;;;6.53;100.00;98286.34;106599;1257;24370;-79
2023/05/07 07:13:06;;;;;;;5.70;4.00;;;;;;;6.56;100.00;98287.38;106648;1277;24089;-79
2023/05/07 07:15:34;;;;;;;4.00;3.40;;;;;;;6.59;100.00;98292.26;106930;1276;22552;-79
2023/05/07 07:18:03;;;;;;;4.50;3.90;;;;;;;6.59;100.00;98291.77;106947;1276;22528;-79
2023/05/07 07:20:32;;;;;;;4.00;3.60;;;;;;;6.55;100.00;98301.23;106695;1276;25341;-79
2023/05/07 07:23:00;;;;;;;5.40;4.20;;;;;;;6.52;100.00;98292.02;107065;1276;24480;-79
2023/05/07 07:25:28;;;;;;;5.70;4.00;;;;;;;6.47;100.00;98302.86;106815;1276;24686;-79
2023/05/07 07:27:57;;;;;;;9.10;6.20;;;;;;;6.42;100.00;98302.41;106912;1276;22940;-79
2023/05/07 07:30:26;;;;;;;7.10;6.30;;;;;;;6.45;100.00;98308.53;106630;1276;22577;-79
2023/05/07 07:32:57;;;;;;;5.60;4.70;;;;;;;6.51;100.00;98312.41;106774;1276;22550;-79
2023/05/07 07:35:26;;;;;;;6.30;5.10;;;;;;;6.56;100.00;98316.17;106613;1276;22584;-80
2023/05/07 07:37:54;;;;;;;4.80;4.30;;;;;;;6.66;100.00;98314.02;106956;1276;24244;-80
2023/05/07 07:40:22;;;;;;;6.30;4.70;;;;;;;6.68;100.00;98320.40;106698;1276;22537;-78
2023/05/07 07:42:53;;;;;;;5.80;5.10;;;;;;;6.68;100.00;98322.61;107009;1276;24234;-78
2023/05/07 07:45:22;;;;;;;6.00;4.30;;;;;;;6.67;100.00;98323.83;106996;1276;24349;-78
2023/05/07 07:47:51;;;;;;;5.00;4.40;;;;;;;6.63;100.00;98322.00;106844;1276;24483;-78
2023/05/07 07:50:19;;;;;;;4.60;4.00;;;;;;;6.63;100.00;98319.69;106970;1276;25683;-78
2023/05/07 07:53:07;;;;;;;5.80;5.10;;;;;;;6.66;100.00;98324.35;106932;1276;22634;-79
2023/05/07 07:55:40;;;;;;;7.00;6.30;;;;;;;6.64;100.00;98325.42;106766;1276;23065;-78
2023/05/07 07:58:09;;;;;;;11.10;10.00;;;;;;;6.63;100.00;98330.34;106876;1276;22651;-79
2023/05/07 08:00:37;;;;;;;9.80;8.10;;;;;;;6.67;100.00;98334.54;106891;1276;22619;-79
2023/05/07 08:03:07;;;;;;;5.90;5.10;;;;;;;6.72;100.00;98333.73;106661;1276;22555;-78
2023/05/07 08:05:38;;;;;;;7.20;5.10;;;;;;;6.79;100.00;98339.63;106791;1276;22627;-80
2023/05/07 08:08:06;;;;;;;5.60;4.60;;;;;;;6.79;100.00;98340.85;107003;1276;24435;-81
2023/05/07 08:10:38;;;;;;;8.20;5.20;;;;;;;6.81;100.00;98348.99;106916;1276;24883;-80
2023/05/07 08:13:11;;;;;;;5.70;4.80;;;;;;;6.76;100.00;98352.09;107020;1276;22784;-80
2023/05/07 08:15:39;;;;;;;6.70;5.40;;;;;;;6.70;100.00;98357.26;106929;1276;24273;-80
2023/05/07 08:18:08;;;;;;;7.80;5.20;;;;;;;6.69;100.00;98354.04;107881;1276;24371;-79
2023/05/07 08:20:39;;;;;;;6.30;5.60;;;;;;;6.70;100.00;98357.58;107152;1276;22610;-77
2023/05/07 08:23:09;;;;;;;5.10;4.60;;;;;;;6.73;100.00;98355.77;107332;1276;22994;-79
2023/05/07 08:25:38;;;;;;;5.10;4.60;;;;;;;6.69;100.00;98357.63;106968;1276;22538;-79
2023/05/07 08:28:07;;;;;;;4.90;4.30;;;;;;;6.61;100.00;98361.07;106904;1276;22797;-76
2023/05/07 08:30:38;;;;;;;6.00;5.30;;;;;;;6.73;100.00;98358.88;106936;1276;25557;-77
2023/05/07 08:33:08;;;;;;;6.20;5.00;;;;;;;7.22;100.00;98360.27;106691;1276;22665;-81
2023/05/07 08:35:36;;;;;;;5.00;4.20;;;;;;;7.29;100.00;98367.17;107061;1276;22520;-82
2023/05/07 08:38:06;;;;;;;5.80;4.70;;;;;;;7.26;100.00;98368.84;107459;1276;22633;-80
2023/05/07 08:40:38;;;;;;;6.00;5.10;;;;;;;7.24;100.00;98370.44;107209;1256;22650;-80
2023/05/07 08:43:12;;;;;;;5.90;4.20;;;;;;;7.26;100.00;98373.86;108196;1276;22741;-81
2023/05/07 08:45:41;;;;;;;5.50;4.90;;;;;;;7.33;100.00;98378.55;107322;1276;25390;-78
2023/05/07 08:48:15;;;;;;;6.30;4.70;;;;;;;7.40;100.00;98384.40;106995;1276;22599;-78
2023/05/07 08:50:49;;;;;;;5.40;4.90;;;;;;;7.36;99.47;98390.77;106991;1276;22630;-78
2023/05/07 08:53:18;;;;;;;6.30;4.80;;;;;;;7.33;99.64;98387.18;107036;1276;22600;-78
2023/05/07 08:55:47;;;;;;;5.90;5.30;;;;;;;7.26;99.01;98392.04;106998;1276;25233;-80
2023/05/07 08:58:16;;;;;;;6.40;5.00;;;;;;;7.18;99.56;98393.27;107046;1276;22561;-76
2023/05/07 09:00:44;;;;;;;6.90;4.90;;;;;;;7.20;99.50;98398.19;106723;1276;25500;-76
2023/05/07 09:03:13;;;;;;;5.50;4.70;;;;;;;7.25;99.75;98404.91;106869;1276;23018;-76
2023/05/07 09:05:44;;;;;;;6.10;5.20;;;;;;;7.27;99.11;98405.49;106892;1276;22598;-76
2023/05/07 09:08:16;;;;;;;7.60;5.00;;;;;;;7.21;99.01;98406.92;106683;1276;22709;-76
2023/05/07 09:10:48;;;;;;;5.30;4.70;;;;;;;7.14;98.95;98412.70;106695;1276;23898;-77
2023/05/07 09:13:18;;;;;;;6.30;5.40;;;;;;;7.09;98.57;98413.07;106743;1276;22647;-78
2023/05/07 09:15:47;;;;;;;8.80;8.00;;;;;;;7.01;98.50;98419.20;106751;1276;25755;-77
2023/05/07 09:18:15;;;;;;;7.40;6.70;;;;;;;7.07;99.00;98423.66;107070;1276;22609;-78
2023/05/07 09:20:45;;;;;;;7.90;6.50;;;;;;;7.09;99.03;98428.13;106646;1260;25223;-78
2023/05/07 09:23:15;;;;;;;8.10;7.30;;;;;;;7.12;98.84;98427.55;106960;1276;24247;-77
2023/05/07 09:25:43;;;;;;;7.70;6.40;;;;;;;7.10;98.70;98427.76;106765;1276;25275;-77
2023/05/07 09:28:18;;;;;;;;;;;;;;;7.10;98.74;98430.21;106761;1276;22501;-78
2023/05/07 09:30:46;;;;;;;7.40;6.70;;;;;;;7.12;98.28;98434.03;106952;1276;23969;-77
2023/05/07 09:33:15;;;;;;;7.60;6.90;;;;;;;7.00;97.42;98436.23;106805;1276;22531;-78
2023/05/07 09:35:50;;;;;;;7.30;6.60;;;;;;;6.92;97.70;98435.83;106651;1276;25321;-78
2023/05/07 09:38:21;;;;;;;7.80;6.90;;;;;;;6.87;97.74;98435.27;106767;1275;24391;-76
2023/05/07 09:41:03;;;;;;;12.50;8.60;;;;;;;6.85;97.93;98434.52;107012;1276;25321;-77
2023/05/07 09:43:35;;;;;;;9.10;7.20;;;;;;;6.85;97.76;98434.24;106983;1273;22521;-78
2023/05/07 09:46:07;;;;;;;7.30;6.60;;;;;;;6.79;97.62;98439.25;106693;1276;22501;-77
2023/05/07 09:48:39;;;;;;;7.10;6.40;;;;;;;6.75;97.81;98445.23;106812;1276;25386;-77
2023/05/07 09:51:21;;;;;;;8.10;7.40;;;;;;;6.77;98.00;98449.63;107044;1276;22530;-76
2023/05/07 09:53:52;;;;;;;8.40;7.00;;;;;;;6.75;97.95;98452.57;106965;1276;22647;-76
2023/05/07 09:56:21;;;;;;;7.60;6.80;;;;;;;6.74;98.14;98457.23;106845;1276;24080;-75
2023/05/07 09:58:52;;;;;;;7.70;6.80;;;;;;;6.70;97.81;98457.14;106760;1276;24325;-77
2023/05/07 10:01:23;;;;;;;8.20;7.20;;;;;;;6.71;98.03;98459.19;106804;1267;22538;-80
2023/05/07 10:03:53;;;;;;;8.50;7.00;;;;;;;6.72;97.72;98459.57;106961;1276;25271;-77
2023/05/07 10:06:22;;;;;;;8.30;7.50;;;;;;;6.60;97.95;98458.59;106931;1276;22520;-78
2023/05/07 10:08:51;;;;;;;9.20;8.30;;;;;;;6.61;98.23;98461.54;106790;1276;24076;-79
2023/05/07 10:11:21;;;;;;;9.00;8.20;;;;;;;6.66;98.21;98468.20;106738;1276;24267;-81
2023/05/07 10:13:52;;;;;;;9.90;9.00;;;;;;;6.74;98.32;98468.85;106766;1276;25386;-80
2023/05/07 10:16:21;;;;;;;10.70;8.00;;;;;;;6.69;97.96;98454.20;107060;1253;25536;-79
2023/05/07 10:18:49;;;;;;;9.40;8.50;;;;;;;6.89;98.18;98475.24;106779;1276;22746;-81
2023/05/07 10:21:23;;;;;;;9.50;8.60;;;;;;;6.98;98.20;98473.90;107170;1276;22818;-79
2023/05/07 10:24:18;;;;;;;9.30;8.40;;;;;;;7.08;98.13;98475.77;106906;1276;23135;-78
2023/05/07 10:26:50;;;;;;;8.20;7.50;;;;;;;7.15;97.54;98480.46;107156;1266;25523;-79
2023/05/07 10:29:37;;;;;;;9.40;8.50;;;;;;;7.19;97.60;98480.42;106856;1266;24289;-80
2023/05/07 10:32:47;;;;;;;9.10;8.20;;;;;;;7.18;97.39;98483.09;107202;1276;22775;-80
2023/05/07 10:35:29;;;;;;;8.90;8.00;;;;;;;7.21;97.56;98486.27;107090;1276;22557;-79
2023/05/07 10:37:58;;;;;;;10.10;9.10;;;;;;;7.22;97.83;98489.38;106923;1276;22599;-79
2023/05/07 10:40:28;;;;;;;10.70;9.60;;;;;;;7.20;97.12;98494.14;106848;1276;22870;-80
2023/05/07 10:42:59;;;;;;;10.10;8.10;;;;;;;7.12;97.14;98495.50;106711;1276;24346;-82
2023/05/07 10:45:29;;;;;;;10.50;9.40;;;;;;;7.11;97.38;98497.52;107035;1276;25389;-81
2023/05/07 10:48:13;;;;;;;11.20;10.10;;;;;;;7.12;97.38;98501.67;106790;1276;22630;-79
2023/05/07 10:51:21;;;;;;;11.00;9.90;;;;;;;7.07;96.78;98504.91;106734;1276;24238;-80
2023/05/07 10:54:11;;;;;;;10.10;9.00;;;;;;;6.95;96.92;98505.23;106951;1276;22524;-80
2023/05/07 10:56:44;;;;;;;10.20;8.80;;;;;;;6.89;96.56;98506.39;106700;1276;22536;-80
2023/05/07 10:59:20;;;;;;;10.10;9.10;;;;;;;6.78;96.64;98506.41;107116;1276;22933;-83
2023/05/07 11:01:57;;;;;;;13.50;10.20;;;;;;;6.75;96.96;98504.42;107170;1276;22599;-81
2023/05/07 11:04:40;;;;;;;10.30;9.40;;;;;;;6.76;97.12;98508.17;107199;1276;25271;-82
2023/05/07 11:07:28;;;;;;;10.90;9.90;;;;;;;6.80;97.28;98505.73;107273;1276;22791;-79
2023/05/07 11:10:07;;;;;;;10.50;9.50;;;;;;;6.80;96.96;98511.52;107401;1276;25210;-78
2023/05/07 11:12:55;;;;;;;10.50;9.50;;;;;;;6.82;97.04;98505.20;108206;1276;22639;-78
2023/05/07 11:15:41;;;;;;;10.50;9.50;;;;;;;6.81;96.96;98509.01;107038;1276;22531;-80
2023/05/07 11:22:53;;;;;;;15.60;14.20;;;;;;;6.88;97.33;98516.55;106995;1276;22619;-82
2023/05/07 11:25:31;;;;;;;11.20;10.00;;;;;;;6.90;97.10;98515.81;107002;1276;22668;-81
2023/05/07 11:28:10;;;;;;;10.90;10.00;;;;;;;6.89;96.53;98517.31;106991;1276;22531;-81
2023/05/07 11:30:42;;;;;;;11.00;9.80;;;;;;;6.83;96.58;98517.54;106766;1276;22574;-78
2023/05/07 11:33:16;;;;;;;9.80;8.90;;;;;;;6.83;96.76;98525.10;106913;1276;22769;-79
2023/05/07 11:35:46;;;;;;;11.10;10.10;;;;;;;6.86;96.76;98525.86;106967;1276;22524;-78
2023/05/07 11:38:15;;;;;;;14.30;13.10;;;;;;;6.90;97.30;98524.23;107038;1276;22676;-79
2023/05/07 11:41:02;;;;;;;9.10;8.30;;;;;;;7.00;97.38;98527.80;106872;1276;23158;-77
2023/05/07 11:43:31;;;;;;;9.20;7.90;;;;;;;7.56;100.00;98526.13;106780;1276;22633;-76